Time;durP1;ratioP1;P1;durP2;ratioP2;P2;SDS_P1;SDS_P2;PMS_P1;PMS_P2;Temp;Humidity;BMP_temperature;BMP_pressure;BME280_temperature;BME280_humidity;BME280_pressure;Samples;Min_cycle;Max_cycle;Signal;HPM_P1;HPM_P2
2021/12/24 00:01:24;;;;;;;25.73;15.48;;;;;;;28.53;69.50;101119.88;5015144;28;70145;-36
2021/12/24 00:03:55;;;;;;;25.88;16.70;;;;;;;28.48;69.97;101108.84;5011875;28;67592;-35
2021/12/24 00:06:26;;;;;;;19.90;15.40;;;;;;;28.54;70.58;101118.00;5010297;28;70081;-35
2021/12/24 00:08:57;;;;;;;25.60;16.30;;;;;;;28.57;70.37;101112.19;5016165;28;65257;-35
2021/12/24 00:11:27;;;;;;;28.75;17.35;;;;;;;28.61;70.58;101129.66;5027826;28;69841;-35
2021/12/24 00:14:00;;;;;;;27.15;16.58;;;;;;;28.60;70.84;101128.00;5016278;28;65230;-36
2021/12/24 00:16:44;;;;;;;29.95;20.50;;;;;;;28.61;70.97;101135.03;5019518;28;70310;-35
2021/12/24 00:19:36;;;;;;;32.90;21.45;;;;;;;28.62;70.96;101136.72;5018989;28;65326;-35
2021/12/24 00:35:53;;;;;;;27.88;15.25;;;;;;;28.80;70.24;101164.03;5022087;28;66062;-36
2021/12/24 00:38:24;;;;;;;21.23;15.52;;;;;;;28.87;69.96;101170.31;5019644;28;71010;-35
2021/12/24 00:40:55;;;;;;;23.30;16.15;;;;;;;28.90;69.66;101174.47;5016388;28;66562;-36
2021/12/24 00:43:27;;;;;;;25.80;16.33;;;;;;;28.85;69.44;101164.25;5011575;28;69764;-35
2021/12/24 00:45:58;;;;;;;24.83;15.57;;;;;;;28.94;69.54;101171.16;5031017;28;66095;-35
2021/12/24 00:48:28;;;;;;;25.50;16.35;;;;;;;28.95;69.85;101172.84;5015782;28;69751;-36
2021/12/24 00:56:14;;;;;;;15.68;14.15;;;;;;;29.03;69.21;101189.88;5012733;28;65331;-36
2021/12/24 00:58:46;;;;;;;18.60;15.32;;;;;;;29.06;69.45;101198.47;5013547;28;69556;-34
2021/12/24 01:01:18;;;;;;;19.23;15.23;;;;;;;29.00;69.49;101187.59;5031514;28;66434;-35
2021/12/24 01:03:49;;;;;;;17.27;15.15;;;;;;;29.09;69.56;101205.34;5015464;28;70123;-35
2021/12/24 01:06:20;;;;;;;23.63;15.68;;;;;;;29.12;69.12;101205.78;5006655;28;65964;-36
2021/12/24 01:08:51;;;;;;;23.23;16.00;;;;;;;29.14;69.08;101211.81;5008673;28;71409;-36
2021/12/24 01:11:22;;;;;;;19.63;14.98;;;;;;;29.09;69.06;101199.94;5010730;28;65713;-35
2021/12/24 01:13:54;;;;;;;22.80;15.68;;;;;;;29.17;69.61;101210.59;5001131;28;70111;-37
2021/12/24 01:16:36;;;;;;;20.55;14.75;;;;;;;28.80;69.14;101141.59;5027216;28;66292;-35
2021/12/24 01:19:16;;;;;;;19.52;14.40;;;;;;;29.19;69.29;101208.50;5016264;28;69501;-35
2021/12/24 01:24:44;;;;;;;18.92;13.98;;;;;;;29.25;69.69;101206.84;5014251;28;70470;-36
2021/12/24 01:27:39;;;;;;;15.88;14.20;;;;;;;29.20;69.07;101198.50;5010026;28;66053;-35
2021/12/24 01:38:57;;;;;;;14.63;13.23;;;;;;;29.28;69.03;101196.50;5011963;28;65547;-36
2021/12/24 01:44:27;;;;;;;14.98;13.55;;;;;;;29.31;69.18;101196.09;5014491;28;65439;-36
2021/12/24 01:47:09;;;;;;;14.25;12.88;;;;;;;29.22;69.49;101175.66;4992142;28;69701;-36
2021/12/24 01:49:41;;;;;;;13.45;12.27;;;;;;;29.36;69.52;101204.44;4995446;28;66466;-36
2021/12/24 01:52:17;;;;;;;13.55;12.35;;;;;;;29.37;69.15;101194.44;4991188;28;70334;-35
2021/12/24 01:54:56;;;;;;;13.10;11.93;;;;;;;29.39;69.59;101197.75;4983114;28;66296;-36
2021/12/24 01:57:27;;;;;;;14.75;12.40;;;;;;;29.40;69.10;101194.03;5007346;28;70844;-37
2021/12/24 02:00:05;;;;;;;14.45;13.05;;;;;;;29.42;69.01;101188.41;5006539;28;66427;-37
2021/12/24 02:02:43;;;;;;;13.75;12.55;;;;;;;29.45;69.25;101183.47;5013393;28;69168;-37
2021/12/24 02:05:18;;;;;;;17.08;13.50;;;;;;;29.47;69.18;101183.25;5011828;28;65863;-37
2021/12/24 02:07:49;;;;;;;15.55;13.30;;;;;;;29.42;69.11;101174.91;4997811;28;70204;-36
2021/12/24 02:10:21;;;;;;;15.50;14.00;;;;;;;29.38;69.31;101169.91;4991616;28;66327;-35
2021/12/24 02:12:53;;;;;;;;;;;;;;;29.06;70.38;101176.88;5015476;28;69200;-36
2021/12/24 02:29:12;;;;;;;13.77;12.50;;;;;;;29.57;69.53;101178.28;5018823;28;70389;-36
2021/12/24 02:31:45;;;;;;;14.90;12.20;;;;;;;29.55;69.10;101174.94;5013343;28;66008;-36
2021/12/24 02:34:18;;;;;;;12.77;11.85;;;;;;;29.60;69.62;101177.88;4993827;28;69925;-36
2021/12/24 02:36:51;;;;;;;14.10;12.80;;;;;;;29.66;69.51;101176.25;5015826;28;64097;-36
2021/12/24 02:39:24;;;;;;;13.35;12.32;;;;;;;29.67;68.95;101173.34;5013962;28;70184;-35
2021/12/24 02:41:57;;;;;;;14.13;12.93;;;;;;;29.67;68.89;101178.75;5005873;28;66467;-35
2021/12/24 02:44:28;;;;;;;14.77;13.45;;;;;;;29.68;69.50;101164.19;5023184;28;69915;-35
2021/12/24 02:55:14;;;;;;;12.75;11.75;;;;;;;29.69;68.92;101160.44;5010473;28;69887;-36
2021/12/24 02:57:45;;;;;;;13.38;12.27;;;;;;;29.76;68.79;101161.31;5005702;28;65842;-36
2021/12/24 03:00:26;;;;;;;14.30;12.90;;;;;;;29.75;69.37;101147.97;5006062;28;69110;-35
2021/12/24 03:02:57;;;;;;;14.00;12.65;;;;;;;29.79;68.97;101158.19;5014119;28;66371;-36
2021/12/24 03:05:28;;;;;;;14.13;12.95;;;;;;;29.75;69.14;101148.78;5006458;28;70463;-35
2021/12/24 03:07:59;;;;;;;13.25;12.02;;;;;;;29.81;69.34;101156.09;5000342;28;65560;-36
2021/12/24 03:10:31;;;;;;;14.05;12.70;;;;;;;29.86;68.71;101155.47;4993332;28;69605;-35
2021/12/24 03:13:02;;;;;;;14.05;12.68;;;;;;;29.86;68.87;101154.66;5002927;28;65607;-35
2021/12/24 03:15:34;;;;;;;15.10;13.55;;;;;;;29.78;68.68;101139.44;5013842;28;69594;-36
2021/12/24 03:18:05;;;;;;;13.43;12.38;;;;;;;29.90;68.78;101147.78;5006523;28;65072;-36
2021/12/24 03:20:36;;;;;;;13.82;12.43;;;;;;;29.95;69.11;101147.97;5005728;28;70389;-36
2021/12/24 03:23:22;;;;;;;13.65;12.20;;;;;;;29.96;69.11;101146.97;5013654;28;66182;-36
2021/12/24 03:25:53;;;;;;;13.95;12.77;;;;;;;29.93;68.68;101144.69;5033113;28;69576;-40
2021/12/24 03:28:25;;;;;;;;;;;;;;;29.57;69.54;101138.56;5017973;28;66196;-36
2021/12/24 03:30:56;;;;;;;13.18;11.88;;;;;;;29.97;68.98;101145.91;4997488;28;70170;-38
2021/12/24 03:33:28;;;;;;;13.35;12.25;;;;;;;30.01;69.14;101139.06;5008977;28;65534;-36
2021/12/24 03:35:58;;;;;;;13.60;12.50;;;;;;;30.00;68.69;101129.25;5015953;28;69619;-36
2021/12/24 03:38:30;;;;;;;13.50;12.50;;;;;;;30.01;68.45;101126.38;5020496;28;65529;-36
2021/12/24 03:41:01;;;;;;;13.68;12.48;;;;;;;30.10;68.37;101118.88;5004652;28;70018;-36
2021/12/24 03:43:33;;;;;;;13.68;12.38;;;;;;;30.10;68.72;101123.44;5016107;28;66111;-36
2021/12/24 03:46:13;;;;;;;14.25;12.95;;;;;;;30.13;68.61;101123.84;5011992;28;69742;-37
2021/12/24 03:48:51;;;;;;;13.73;12.63;;;;;;;30.17;68.75;101119.69;5015131;28;66510;-36
2021/12/24 03:56:56;;;;;;;12.75;11.75;;;;;;;30.24;68.73;101115.13;5003903;28;70465;-36
2021/12/24 04:00:01;;;;;;;12.43;11.48;;;;;;;30.01;68.45;101066.84;5014586;28;66860;-36
2021/12/24 04:02:57;;;;;;;12.13;11.02;;;;;;;30.25;68.44;101088.91;4998137;28;69115;-36
2021/12/24 04:05:40;;;;;;;13.10;11.90;;;;;;;30.25;68.60;101078.91;5014602;28;66066;-37
2021/12/24 04:08:44;;;;;;;12.75;11.52;;;;;;;30.35;68.11;101088.47;5025557;28;70181;-36
2021/12/24 04:11:48;;;;;;;12.05;11.05;;;;;;;30.38;68.41;101079.94;5018689;28;67010;-35
2021/12/24 04:14:23;;;;;;;12.45;10.95;;;;;;;30.39;68.37;101070.75;5006562;28;71085;-36
2021/12/24 04:16:54;;;;;;;11.32;10.57;;;;;;;30.37;68.38;101059.28;5014532;28;66304;-36
2021/12/24 04:24:50;;;;;;;14.80;11.27;;;;;;;30.48;68.45;101072.19;5032797;28;70161;-36
2021/12/24 04:25:15;;;;;;;11.10;10.23;;;;;;;30.57;68.39;101057.38;5005573;28;69454;-35
2021/12/24 04:27:46;;;;;;;11.57;10.67;;;;;;;30.60;68.10;101053.41;4977676;28;66739;-35
2021/12/24 04:30:22;;;;;;;11.90;10.98;;;;;;;30.52;68.51;101035.53;5015176;28;69370;-36
2021/12/24 04:33:04;;;;;;;11.32;10.38;;;;;;;30.59;68.36;101041.75;4992195;28;66189;-36
2021/12/24 04:35:56;;;;;;;10.05;9.40;;;;;;;30.64;68.05;101039.22;5013284;28;70121;-37
2021/12/24 04:38:39;;;;;;;10.52;9.63;;;;;;;30.73;68.48;101042.53;5009400;28;65263;-35
2021/12/24 05:03:30;;;;;;;9.32;8.73;;;;;;;31.01;67.27;101006.97;5012715;28;70202;-35
2021/12/24 05:06:14;;;;;;;9.45;8.85;;;;;;;30.99;67.02;100987.41;5013117;28;66522;-36
2021/12/24 05:09:00;;;;;;;9.80;8.98;;;;;;;31.06;67.17;100999.00;5028975;28;70096;-36
2021/12/24 05:11:30;;;;;;;9.27;8.57;;;;;;;30.98;67.29;100968.66;5011016;28;66490;-34
2021/12/24 05:14:01;;;;;;;9.90;8.98;;;;;;;31.11;67.47;100984.81;5030143;28;70492;-35
2021/12/24 05:16:49;;;;;;;9.60;8.82;;;;;;;31.14;67.19;100987.91;5031354;28;66392;-36
2021/12/24 05:22:15;;;;;;;10.05;9.45;;;;;;;31.13;67.62;100964.56;5005691;28;65689;-35
2021/12/24 05:24:46;;;;;;;8.60;8.10;;;;;;;31.25;67.74;100980.13;5009135;28;69964;-36
2021/12/24 05:27:18;;;;;;;9.30;8.55;;;;;;;31.28;67.37;100980.50;5030182;28;66635;-35
2021/12/24 05:29:50;;;;;;;9.40;8.63;;;;;;;31.31;67.69;100971.09;4997079;28;70353;-35
2021/12/24 05:32:22;;;;;;;9.10;8.30;;;;;;;31.30;67.52;100955.91;5004382;28;65505;-35
2021/12/24 05:34:53;;;;;;;9.55;8.75;;;;;;;31.32;67.28;100954.63;4995696;28;69941;-35
2021/12/24 05:37:24;;;;;;;8.77;8.18;;;;;;;31.32;67.32;100945.69;5015350;28;66057;-36
2021/12/24 05:39:55;;;;;;;9.00;8.38;;;;;;;31.38;67.15;100952.94;5016281;28;70192;-36
2021/12/24 05:42:32;;;;;;;8.93;8.43;;;;;;;31.33;67.04;100934.59;4988725;28;66118;-36
2021/12/24 05:45:07;;;;;;;9.32;8.65;;;;;;;31.37;67.41;100935.00;4996743;28;70091;-34
2021/12/24 05:47:56;;;;;;;9.95;8.93;;;;;;;31.40;66.99;100934.59;5013524;28;65521;-35
2021/12/24 05:50:27;;;;;;;8.60;8.10;;;;;;;31.45;66.92;100926.59;5013517;28;70192;-37
2021/12/24 05:53:30;;;;;;;9.32;8.68;;;;;;;31.49;67.36;100922.41;5016894;28;64219;-35
2021/12/24 05:56:11;;;;;;;10.00;8.85;;;;;;;31.51;67.09;100912.16;5028992;28;69929;-36
2021/12/24 05:58:45;;;;;;;10.43;9.55;;;;;;;31.50;67.21;100898.81;5029547;28;66825;-35
2021/12/24 06:01:17;;;;;;;9.48;8.77;;;;;;;31.58;66.69;100903.94;5014180;28;70662;-36
2021/12/24 06:03:50;;;;;;;9.27;8.60;;;;;;;31.54;67.00;100881.88;5015020;28;65925;-35
2021/12/24 06:06:21;;;;;;;9.60;8.80;;;;;;;31.59;66.56;100884.75;5014042;28;70297;-35
2021/12/24 06:08:52;;;;;;;9.68;8.98;;;;;;;31.56;66.99;100868.91;5029220;28;66408;-36
2021/12/24 06:11:23;;;;;;;10.25;9.25;;;;;;;31.67;66.99;100877.38;5013531;28;69473;-35
2021/12/24 06:13:56;;;;;;;10.63;9.23;;;;;;;31.61;66.50;100865.53;5011527;28;65910;-36
2021/12/24 06:16:27;;;;;;;9.77;8.73;;;;;;;31.71;66.34;100871.28;5015100;28;69743;-35
2021/12/24 06:19:01;;;;;;;9.38;8.88;;;;;;;31.66;66.50;100859.44;4995479;28;66138;-35
2021/12/24 06:21:32;;;;;;;8.82;8.30;;;;;;;31.76;66.71;100862.44;5013725;28;70223;-35
2021/12/24 06:24:03;;;;;;;10.13;9.30;;;;;;;31.69;66.69;100850.84;5014879;28;66545;-35
2021/12/24 06:26:34;;;;;;;9.52;8.88;;;;;;;31.76;66.49;100852.44;5012774;28;69433;-36
2021/12/24 06:29:05;;;;;;;9.43;8.88;;;;;;;31.80;66.42;100847.38;5013397;28;66550;-35
2021/12/24 06:31:36;;;;;;;9.23;8.53;;;;;;;31.84;66.16;100851.28;5016009;28;70087;-36
2021/12/24 06:34:08;;;;;;;9.90;9.10;;;;;;;31.88;66.29;100851.69;4996290;28;66002;-35
2021/12/24 06:36:42;;;;;;;9.77;9.05;;;;;;;31.88;66.32;100847.06;5015242;28;70015;-35
2021/12/24 06:39:15;;;;;;;9.57;8.88;;;;;;;31.94;66.21;100843.47;4993786;28;65301;-36
2021/12/24 06:41:46;;;;;;;10.02;9.18;;;;;;;31.94;66.09;100840.75;5014064;28;70211;-36
2021/12/24 06:44:17;;;;;;;9.20;8.35;;;;;;;31.97;65.71;100847.63;5013523;28;65733;-34
2021/12/24 06:46:48;;;;;;;8.60;8.15;;;;;;;32.00;66.06;100841.72;5011608;28;70499;-35
2021/12/24 06:49:19;;;;;;;9.48;8.88;;;;;;;31.99;65.87;100840.91;5012150;28;66710;-36
2021/12/24 06:51:50;;;;;;;10.02;9.32;;;;;;;31.99;66.08;100838.19;5015152;28;70478;-35
2021/12/24 06:54:21;;;;;;;8.82;8.23;;;;;;;32.02;65.95;100845.06;5012454;28;66068;-35
2021/12/24 06:56:53;;;;;;;9.53;8.80;;;;;;;32.01;65.88;100833.38;5010545;28;70101;-35
2021/12/24 06:59:24;;;;;;;9.65;8.85;;;;;;;32.01;66.06;100827.94;5028970;28;66010;-35
2021/12/24 07:01:59;;;;;;;9.73;9.00;;;;;;;32.05;65.78;100831.84;5027524;28;70336;-35
2021/12/24 07:04:31;;;;;;;9.55;8.85;;;;;;;31.93;66.01;100801.13;5015746;28;64122;-36
2021/12/24 07:07:02;;;;;;;9.50;8.80;;;;;;;32.12;66.30;100825.50;5013043;28;69312;-35
2021/12/24 07:09:34;;;;;;;9.30;8.70;;;;;;;32.12;66.11;100828.22;5009641;28;65493;-35
2021/12/24 07:12:06;;;;;;;9.95;9.18;;;;;;;32.14;65.80;100821.50;5014016;28;70167;-35
2021/12/24 07:14:38;;;;;;;9.90;9.10;;;;;;;32.15;65.86;100817.75;5006497;28;66503;-36
2021/12/24 07:17:09;;;;;;;9.68;9.07;;;;;;;32.18;65.75;100816.44;5009753;28;70272;-35
2021/12/24 07:19:40;;;;;;;11.85;9.15;;;;;;;32.18;66.18;100816.44;5014516;28;65266;-36
2021/12/24 07:22:13;;;;;;;9.80;8.98;;;;;;;32.18;65.75;100817.28;5012316;28;69549;-36
2021/12/24 07:24:45;;;;;;;10.70;10.10;;;;;;;32.23;65.59;100813.84;5013258;28;66517;-36
2021/12/24 07:27:16;;;;;;;9.30;8.80;;;;;;;32.20;66.06;100806.19;5012520;28;69141;-36
2021/12/24 07:29:47;;;;;;;10.98;9.82;;;;;;;32.23;65.89;100809.28;5014670;28;66877;-36
2021/12/24 07:32:18;;;;;;;10.35;9.32;;;;;;;32.26;65.53;100797.09;5004450;28;70254;-35
2021/12/24 07:34:48;;;;;;;11.80;10.63;;;;;;;32.28;65.79;100803.13;5013642;28;66365;-35
2021/12/24 07:37:19;;;;;;;11.00;10.20;;;;;;;32.32;65.21;100801.63;5013371;28;70159;-35
2021/12/24 07:39:50;;;;;;;11.13;10.32;;;;;;;32.34;65.33;100804.91;5013507;28;66327;-35
2021/12/24 07:42:23;;;;;;;10.55;9.75;;;;;;;32.32;65.20;100785.34;5025485;28;69293;-35
2021/12/24 07:44:53;;;;;;;11.43;10.40;;;;;;;32.38;65.06;100789.84;5006756;28;65314;-36
2021/12/24 07:47:32;;;;;;;11.45;10.32;;;;;;;32.40;65.07;100790.44;5011250;28;71073;-36
2021/12/24 07:52:58;;;;;;;12.60;11.13;;;;;;;32.41;65.04;100791.25;4983335;28;69533;-35
2021/12/24 07:55:29;;;;;;;11.63;10.55;;;;;;;32.41;65.29;100789.38;5013178;28;66414;-37
2021/12/24 07:58:01;;;;;;;18.73;11.33;;;;;;;32.36;64.89;100783.81;5010773;28;68953;-35
2021/12/24 08:00:32;;;;;;;12.70;10.63;;;;;;;32.41;65.12;100789.38;5009259;28;65049;-35
2021/12/24 08:03:03;;;;;;;12.20;11.13;;;;;;;32.40;65.24;100787.72;5011714;28;69664;-35
2021/12/24 08:05:39;;;;;;;14.70;11.00;;;;;;;32.41;65.00;100774.97;5001756;28;66203;-35
2021/12/24 08:08:12;;;;;;;12.38;11.05;;;;;;;32.43;65.02;100776.38;5014067;28;69467;-34
2021/12/24 08:10:42;;;;;;;12.32;11.13;;;;;;;32.38;64.99;100770.00;5017001;28;66055;-35
2021/12/24 08:13:13;;;;;;;11.18;10.38;;;;;;;32.36;65.21;100772.94;5016789;28;70128;-35
2021/12/24 08:15:48;;;;;;;12.70;11.40;;;;;;;32.43;65.35;100775.53;5016105;28;66557;-36
2021/12/24 08:18:19;;;;;;;13.20;11.88;;;;;;;32.23;65.23;100737.84;5016417;28;70159;-36
2021/12/24 08:20:49;;;;;;;11.93;11.18;;;;;;;32.45;65.06;100774.25;5016842;28;66571;-36
2021/12/24 08:23:20;;;;;;;13.95;12.40;;;;;;;32.44;65.08;100775.31;5017650;28;69988;-35
2021/12/24 08:25:58;;;;;;;14.95;13.50;;;;;;;32.39;65.16;100758.06;5009904;28;66299;-36
2021/12/24 08:28:29;;;;;;;14.50;12.95;;;;;;;32.42;64.80;100780.16;5016800;28;70156;-36
2021/12/24 08:30:59;;;;;;;14.82;13.45;;;;;;;32.43;64.86;100778.25;5010412;28;64849;-35
2021/12/24 08:33:31;;;;;;;13.48;12.38;;;;;;;32.43;64.85;100781.81;5015055;28;70771;-35
2021/12/24 08:36:04;;;;;;;11.93;11.20;;;;;;;32.16;64.62;100742.56;5016560;28;66375;-36
2021/12/24 08:38:35;;;;;;;13.10;12.23;;;;;;;32.51;64.72;100807.00;5017217;28;69615;-35
2021/12/24 08:41:06;;;;;;;13.30;12.20;;;;;;;32.50;64.88;100808.88;5014196;28;66425;-36
2021/12/24 08:43:37;;;;;;;12.57;11.65;;;;;;;32.51;65.08;100812.41;5012113;28;70502;-37
2021/12/24 08:46:09;;;;;;;13.20;11.50;;;;;;;32.49;64.94;100808.06;5017146;28;66334;-36
2021/12/24 08:48:40;;;;;;;12.45;11.52;;;;;;;32.49;65.09;100813.50;5017075;28;70133;-36
2021/12/24 08:51:11;;;;;;;12.25;11.13;;;;;;;32.40;65.09;100809.44;5017472;28;67339;-35
2021/12/24 08:53:42;;;;;;;18.63;11.38;;;;;;;32.47;64.59;100837.31;5020658;28;69360;-36
2021/12/24 08:56:14;;;;;;;12.77;11.30;;;;;;;32.47;64.87;100852.78;5004467;28;66277;-36
2021/12/24 08:58:44;;;;;;;12.07;10.85;;;;;;;32.46;64.76;100859.28;5012600;28;69550;-36
2021/12/24 09:01:20;;;;;;;11.50;10.68;;;;;;;32.50;65.00;100852.31;5015384;28;66059;-36
2021/12/24 09:03:51;;;;;;;12.60;10.75;;;;;;;32.47;64.94;100853.63;5015365;28;69585;-35
2021/12/24 09:06:24;;;;;;;10.67;9.87;;;;;;;32.39;64.41;100851.19;5017363;28;66346;-36
2021/12/24 09:08:55;;;;;;;10.40;9.65;;;;;;;32.48;64.71;100855.28;5016861;28;69204;-36
2021/12/24 09:11:26;;;;;;;10.85;9.88;;;;;;;32.46;64.79;100859.28;5010598;28;66762;-36
2021/12/24 09:13:57;;;;;;;10.73;9.65;;;;;;;32.38;64.50;100854.97;5015645;28;69740;-36
2021/12/24 09:16:28;;;;;;;10.25;9.23;;;;;;;32.36;64.78;100862.53;5008546;28;66728;-36
2021/12/24 09:19:04;;;;;;;11.23;10.07;;;;;;;32.42;64.67;100883.31;5008176;28;70151;-35
2021/12/24 09:21:36;;;;;;;10.00;9.27;;;;;;;32.41;64.29;100887.09;5015465;28;66337;-36
2021/12/24 09:24:08;;;;;;;9.43;8.73;;;;;;;32.43;64.41;100889.56;5011985;28;69412;-37
2021/12/24 09:26:40;;;;;;;9.43;8.73;;;;;;;32.37;64.36;100885.06;5012347;28;66358;-36
2021/12/24 09:29:11;;;;;;;9.13;8.40;;;;;;;32.33;64.73;100890.13;5016678;28;69177;-35
2021/12/24 09:31:42;;;;;;;9.07;8.48;;;;;;;32.36;64.71;100900.53;5012642;28;66085;-36
2021/12/24 09:34:13;;;;;;;9.50;8.05;;;;;;;32.14;64.53;100880.38;4997330;28;70192;-38
2021/12/24 09:36:45;;;;;;;8.07;7.47;;;;;;;32.27;64.12;100907.34;4999086;28;66025;-35
2021/12/24 09:39:16;;;;;;;7.97;7.28;;;;;;;32.33;64.06;100916.47;5015489;28;70710;-35
2021/12/24 09:41:47;;;;;;;7.77;7.20;;;;;;;32.15;63.78;100903.72;5017786;28;66255;-36
2021/12/24 09:44:18;;;;;;;7.85;7.35;;;;;;;32.27;63.96;100929.06;5014487;28;69837;-35
2021/12/24 09:46:50;;;;;;;8.03;7.33;;;;;;;32.27;63.63;100931.78;5017514;28;65664;-36
2021/12/24 09:49:21;;;;;;;7.63;6.90;;;;;;;32.25;63.48;100931.16;5017212;28;70091;-35
2021/12/24 09:51:52;;;;;;;8.68;7.10;;;;;;;32.17;63.66;100917.91;5013972;28;65881;-36
2021/12/24 09:54:25;;;;;;;8.35;7.65;;;;;;;31.67;63.70;100820.41;5012287;28;69855;-36
2021/12/24 09:56:58;;;;;;;9.93;7.18;;;;;;;32.23;63.37;100911.56;4993574;28;65755;-36
2021/12/24 09:59:29;;;;;;;7.97;7.28;;;;;;;32.21;63.47;100914.53;4991030;28;70621;-37
2021/12/24 10:02:01;;;;;;;7.43;6.97;;;;;;;31.87;63.38;100872.53;5016443;28;66279;-36
2021/12/24 10:04:34;;;;;;;9.23;8.43;;;;;;;32.19;63.46;100926.66;5016758;28;69192;-36
2021/12/24 10:07:08;;;;;;;7.85;7.25;;;;;;;32.13;63.26;100927.56;5017214;28;66105;-36
2021/12/24 10:09:49;;;;;;;8.10;7.60;;;;;;;32.16;63.37;100935.25;5014588;28;70011;-35
2021/12/24 10:12:24;;;;;;;7.70;7.00;;;;;;;31.56;63.41;100847.22;5032959;28;66331;-35
2021/12/24 10:14:59;;;;;;;8.32;7.80;;;;;;;32.04;63.63;100929.78;5013225;28;69599;-36
2021/12/24 10:17:35;;;;;;;9.43;8.48;;;;;;;31.92;63.44;100904.44;5015221;28;66100;-37
2021/12/24 10:20:18;;;;;;;9.13;8.35;;;;;;;31.94;63.55;100924.88;5009996;28;69162;-36
2021/12/24 10:22:54;;;;;;;8.48;7.93;;;;;;;32.06;63.63;100943.91;5014246;28;66321;-36
2021/12/24 10:25:28;;;;;;;8.80;8.00;;;;;;;32.05;63.90;100953.13;5020411;28;69229;-36
2021/12/24 10:28:10;;;;;;;8.10;7.60;;;;;;;31.96;64.38;100960.75;5016538;28;65589;-36
2021/12/24 10:30:40;;;;;;;9.00;8.20;;;;;;;31.92;64.13;100948.66;5008684;28;70231;-37
2021/12/24 10:33:13;;;;;;;13.00;8.60;;;;;;;32.00;64.36;100969.25;5016195;28;65428;-36
2021/12/24 10:36:00;;;;;;;9.23;8.60;;;;;;;31.87;64.09;100951.19;5014797;28;70540;-35
2021/12/24 10:38:30;;;;;;;14.45;10.85;;;;;;;31.93;64.12;100969.34;5011293;28;66306;-36
2021/12/24 10:41:07;;;;;;;9.52;8.93;;;;;;;31.94;64.42;100973.69;5010705;28;68833;-39
2021/12/24 10:43:39;;;;;;;8.75;8.15;;;;;;;31.94;64.28;100973.69;5014582;28;66316;-36
2021/12/24 10:46:22;;;;;;;9.80;9.00;;;;;;;31.70;64.32;100928.44;5014983;28;69950;-36
2021/12/24 10:49:08;;;;;;;8.95;8.45;;;;;;;31.87;64.88;100974.78;5015238;28;66004;-37
2021/12/24 10:52:11;;;;;;;9.30;8.50;;;;;;;31.37;65.06;100908.75;5002738;28;69849;-36
2021/12/24 10:54:54;;;;;;;10.07;9.27;;;;;;;31.79;64.95;100975.94;5012094;28;65579;-35
2021/12/24 10:57:29;;;;;;;10.20;8.75;;;;;;;31.55;64.44;100937.75;5011898;28;71299;-36
2021/12/24 11:00:05;;;;;;;10.18;9.15;;;;;;;31.44;65.33;100962.91;5015997;28;66269;-37
2021/12/24 11:02:38;;;;;;;13.82;10.23;;;;;;;31.47;65.30;100984.13;5013371;28;43126;-36
2021/12/24 11:05:25;;;;;;;11.48;9.80;;;;;;;31.27;66.36;100984.28;5009113;28;66245;-37
2021/12/24 11:08:00;;;;;;;14.32;10.50;;;;;;;31.08;66.29;100931.88;4994221;28;69111;-35
2021/12/24 11:10:37;;;;;;;15.48;11.40;;;;;;;31.23;66.81;100982.22;5013048;28;65589;-37
2021/12/24 11:13:14;;;;;;;14.43;10.63;;;;;;;31.02;66.71;100949.03;5007149;28;69129;-36
2021/12/24 11:15:48;;;;;;;18.63;12.05;;;;;;;30.98;66.78;100939.69;5013880;28;66250;-37
2021/12/24 11:18:30;;;;;;;12.35;11.00;;;;;;;31.17;67.15;100973.94;5012332;28;70083;-37
2021/12/24 11:21:01;;;;;;;;;;;;;;;30.87;68.55;100991.84;5014614;28;66069;-37
2021/12/24 11:23:35;;;;;;;16.33;12.13;;;;;;;31.09;67.49;100986.91;5017185;28;70094;-36
2021/12/24 11:26:16;;;;;;;19.13;11.48;;;;;;;31.13;67.99;101007.94;5018824;28;65471;-36
2021/12/24 11:28:48;;;;;;;15.40;11.95;;;;;;;31.16;67.32;100999.34;5013742;28;70215;-35
2021/12/24 11:31:22;;;;;;;19.85;12.05;;;;;;;30.73;68.54;100945.88;5018060;28;65327;-37
2021/12/24 11:33:54;;;;;;;28.20;13.48;;;;;;;31.16;67.92;101004.78;5011483;28;70392;-38
2021/12/24 11:36:28;;;;;;;17.33;13.63;;;;;;;30.84;67.84;100948.94;5015575;28;66271;-36
2021/12/24 11:39:02;;;;;;;26.33;13.57;;;;;;;31.09;67.74;101000.44;5016557;28;69520;-36
2021/12/24 11:41:33;;;;;;;16.00;13.65;;;;;;;31.05;67.40;101005.47;5005842;28;66155;-36
2021/12/24 11:44:07;;;;;;;20.53;13.43;;;;;;;31.04;67.69;101011.97;5023041;28;69356;-36
2021/12/24 11:46:40;;;;;;;15.70;13.48;;;;;;;31.07;66.93;101021.53;5020172;28;66179;-36
2021/12/24 11:49:11;;;;;;;21.45;13.75;;;;;;;31.02;67.08;101019.47;5016929;28;69305;-36
2021/12/24 11:51:43;;;;;;;17.40;13.48;;;;;;;31.00;67.17;101023.44;5021264;28;66214;-37
2021/12/24 11:54:14;;;;;;;;;;;;;;;30.64;68.67;101025.66;5021207;28;70348;-37
2021/12/24 11:56:54;;;;;;;18.77;14.30;;;;;;;30.91;67.33;101022.88;5019025;28;67716;-36
2021/12/24 11:59:39;;;;;;;18.80;14.00;;;;;;;30.66;67.82;101007.34;4995945;28;69655;-35
2021/12/24 12:02:10;;;;;;;15.23;13.52;;;;;;;30.91;67.73;101029.13;5025059;28;65375;-37
2021/12/24 12:04:41;;;;;;;16.20;14.35;;;;;;;30.95;67.39;101045.75;5018448;28;70030;-36
2021/12/24 12:07:16;;;;;;;16.83;14.93;;;;;;;30.93;67.63;101048.69;5019636;28;65920;-36
2021/12/24 12:09:47;;;;;;;17.58;15.45;;;;;;;30.95;67.78;101051.19;5000240;28;70789;-37
2021/12/24 12:12:35;;;;;;;19.13;14.70;;;;;;;30.81;68.79;101060.41;5017128;28;65249;-36
2021/12/24 12:15:31;;;;;;;17.75;15.40;;;;;;;30.79;68.64;101062.50;5018149;28;70145;-37
2021/12/24 12:18:04;;;;;;;26.35;20.60;;;;;;;30.74;66.01;101065.84;5015373;28;65267;-39
2021/12/24 12:20:47;;;;;;;34.15;21.92;;;;;;;30.59;64.42;101074.25;5000136;28;69295;-39
2021/12/24 12:23:50;;;;;;;37.50;21.42;;;;;;;30.28;64.20;101067.69;5000561;28;66287;-36
2021/12/24 12:26:53;;;;;;;31.75;23.13;;;;;;;30.09;64.26;101071.22;5018160;28;70245;-37
2021/12/24 12:29:53;;;;;;;;;;;;;;;29.83;64.70;101081.00;5008869;28;66655;-37
2021/12/24 12:32:38;;;;;;;35.78;22.58;;;;;;;30.14;64.56;101082.22;5013311;28;69669;-37
2021/12/24 12:35:09;;;;;;;32.10;22.85;;;;;;;30.13;64.88;101088.69;5017134;28;66492;-37
2021/12/24 12:37:49;;;;;;;29.52;23.48;;;;;;;29.76;64.15;101039.63;4995999;28;70032;-36
2021/12/24 12:40:20;;;;;;;31.50;22.42;;;;;;;30.04;64.55;101087.25;5023285;28;66156;-37
2021/12/24 12:42:51;;;;;;;31.08;23.42;;;;;;;29.97;64.90;101092.63;5009795;28;69790;-38
2021/12/24 12:45:47;;;;;;;36.33;24.13;;;;;;;29.79;64.64;101089.75;5017562;28;65982;-37
2021/12/24 12:48:26;;;;;;;38.42;25.30;;;;;;;29.92;64.66;101099.72;5015982;28;69314;-39
2021/12/24 12:51:02;;;;;;;45.83;25.67;;;;;;;29.79;65.31;101079.75;5019313;28;65513;-38
2021/12/24 12:53:35;;;;;;;35.22;24.52;;;;;;;29.77;65.11;101092.66;5017523;28;69809;-38
2021/12/24 12:56:22;;;;;;;34.40;23.23;;;;;;;29.30;65.22;101032.28;5018704;28;66334;-36
2021/12/24 12:59:06;;;;;;;38.35;23.45;;;;;;;29.69;65.04;101106.38;5023151;28;70188;-36
2021/12/24 13:01:53;;;;;;;43.63;24.77;;;;;;;29.57;65.17;101108.00;5022243;28;65808;-36
2021/12/24 13:04:24;;;;;;;40.30;24.88;;;;;;;29.71;65.24;101120.53;5012909;28;69502;-36
2021/12/24 13:06:57;;;;;;;43.08;25.92;;;;;;;29.65;65.48;101121.34;5019341;28;65291;-36
2021/12/24 13:09:34;;;;;;;33.45;26.52;;;;;;;29.47;65.76;101083.25;5019647;28;69313;-39
2021/12/24 13:12:08;;;;;;;42.35;26.13;;;;;;;29.69;65.58;101130.69;5018255;28;66109;-35
2021/12/24 13:14:39;;;;;;;34.42;26.10;;;;;;;29.68;65.87;101120.94;5011023;28;70248;-37
2021/12/24 13:22:36;;;;;;;37.92;22.38;;;;;;;29.34;66.14;101075.97;5020343;28;66617;-37
2021/12/24 13:25:17;;;;;;;46.08;21.27;;;;;;;29.52;66.62;101110.47;5017656;28;69122;-35
2021/12/24 13:27:51;;;;;;;32.72;18.15;;;;;;;29.57;66.84;101110.72;5003592;28;66375;-37
2021/12/24 13:30:29;;;;;;;28.63;14.07;;;;;;;29.31;67.16;101061.00;5018383;28;70545;-35